Wetterstation Vordersexau
Wetterdaten: Juni 2012
Datum Temp. A. Feuchte A. Luftdruck Regen Wind Richtung Taupunkt Windchill Windben
01.06.2012 17,7 C 72 % 1016,3 hPa 0,0 l/m 2,9 km/h N-NO 12,4 C 17,4 C 1,6 km/h
02.06.2012 20,8 C 59 % 1012,6 hPa 0,0 l/m 2,8 km/h NO 11,3 C 20,7 C 1,5 km/h
03.06.2012 15,9 C 81 % 1008,5 hPa 11,7 l/m 8,7 km/h O-NO 12,6 C 14,3 C 4,8 km/h
04.06.2012 15,6 C 71 % 1010,7 hPa 2,8 l/m 12,1 km/h SO 10,3 C 13,0 C 6,7 km/h
05.06.2012 15,7 C 62 % 1015,3 hPa 0,7 l/m 2,6 km/h W 7,9 C 15,3 C 1,4 km/h
06.06.2012 15,9 C 77 % 1008,7 hPa 0,4 l/m 7,5 km/h W-SW 11,7 C 14,5 C 4,2 km/h
07.06.2012 19,7 C 74 % 1005,0 hPa 6,8 l/m 4,0 km/h W 14,7 C 19,0 C 2,2 km/h
08.06.2012 17,0 C 76 % 1009,1 hPa 2,8 l/m 7,0 km/h S-SW 12,6 C 15,9 C 3,9 km/h
09.06.2012 17,8 C 64 % 1013,6 hPa 0,0 l/m 9,3 km/h S-SW 10,3 C 16,4 C 5,2 km/h
10.06.2012 17,5 C 64 % 1009,4 hPa 0,0 l/m 1,0 km/h O-NO 9,9 C 17,4 C 0,5 km/h
11.06.2012 16,8 C 72 % 1003,1 hPa 9,3 l/m 10,1 km/h W-SW 11,5 C 15,2 C 5,6 km/h
12.06.2012 13,6 C 83 % 1003,5 hPa 10,7 l/m 4,9 km/h W-SW 10,7 C 12,6 C 2,7 km/h
13.06.2012 14,3 C 79 % 1012,3 hPa 9,6 l/m 10,1 km/h SW 10,7 C 12,2 C 5,6 km/h
14.06.2012 19,0 C 58 % 1016,0 hPa 0,0 l/m 0,1 km/h SO 9,3 C 19,0 C 0,0 km/h
15.06.2012 20,5 C 63 % 1014,5 hPa 0,0 l/m 4,4 km/h NO 12,6 C 20,3 C 2,4 km/h
16.06.2012 23,0 C 59 % 1015,2 hPa 0,0 l/m 7,9 km/h SO 13,3 C 22,7 C 4,4 km/h
17.06.2012 19,8 C 69 % 1019,2 hPa 0,0 l/m 2,1 km/h W-NW 13,5 C 19,8 C 1,2 km/h
18.06.2012 22,5 C 64 % 1014,5 hPa 0,0 l/m 5,5 km/h O-NO 14,6 C 22,3 C 3,1 km/h
19.06.2012 21,0 C 72 % 1015,1 hPa 0,4 l/m 1,0 km/h W-NW 15,6 C 21,0 C 0,6 km/h
20.06.2012 21,0 C 73 % 1012,0 hPa 1,4 l/m 8,0 km/h W-SW 16,0 C 19,9 C 4,4 km/h
21.06.2012 21,9 C 70 % 1009,8 hPa 4,3 l/m 1,4 km/h W 15,6 C 21,8 C 0,8 km/h
22.06.2012 19,8 C 60 % 1018,5 hPa 0,0 l/m 10,9 km/h W 11,0 C 18,2 C 6,0 km/h
23.06.2012 19,9 C 58 % 1021,6 hPa 0,0 l/m 2,2 km/h SO 10,3 C 19,8 C 1,2 km/h
24.06.2012 18,6 C 66 % 1017,1 hPa 0,4 l/m 8,0 km/h NO 11,5 C 17,6 C 4,4 km/h
25.06.2012 19,3 C 65 % 1016,1 hPa 10,0 l/m 3,5 km/h N-NO 11,8 C 19,0 C 2,0 km/h
26.06.2012 19,3 C 65 % 1019,7 hPa 0,0 l/m 1,2 km/h O-SO 11,7 C 19,2 C 0,6 km/h
27.06.2012 23,8 C 64 % 1018,0 hPa 0,0 l/m 2,0 km/h SO 15,9 C 23,8 C 1,1 km/h
28.06.2012 25,4 C 64 % 1010,1 hPa 0,0 l/m 1,0 km/h SO 17,6 C 25,4 C 0,6 km/h
29.06.2012 26,3 C 66 % 1008,5 hPa 3,9 l/m 4,3 km/h N-NO 18,8 C 26,1 C 2,4 km/h
30.06.2012 26,5 C 65 % 1010,5 hPa 0,0 l/m 2,3 km/h O-SO 18,7 C 26,2 C 1,3 km/h
Min-Datum 14.06.12 14.06.12 07.06.12 15 Tage 01.06.12 - 14.06.12 04.06.12 01.06.12
Min-Zeit 05:30 18:19 17:30 - 00:30 - 05:30 23:30 00:30
Minimum 8,2 C 28 % 1000,0 hPa - 0,0 km/h - 5,1 C 6,2 C 0,0 km/h
Max-Datum 29.06.12 13.06.12 23.06.12 03.06.12 09.06.12 - 29.06.12 29.06.12 09.06.12
Max-Zeit 17:19 05:30 08:19 23:30 11:30 - 17:19 17:19 11:30
Maximum 39,0 C 85 % 1023,1 hPa 11,7 l/m 40,2 km/h
S-SW
- 22,9 C 39,0 C 22,3 km/h
S-SW
Durchschnitt 19,5 C 68 % 1012,8 hPa #75,1 l/m 5,0 km/h SO 12,8 C 18,9 C 2,8 km/h

Durchschnitt Minimum Temp.12,6 C
Durchschnitt Maximum Temp.28,8 C
www.sexauwetter.de